createdAt,value
2022-11-13T00:01:59.155Z,101629.00
2022-11-13T00:04:27.940Z,101624.00
2022-11-13T00:06:59.384Z,101620.00
2022-11-13T00:09:28.435Z,101621.00
2022-11-13T00:11:57.392Z,101628.00
2022-11-13T00:14:26.330Z,101637.00
2022-11-13T00:16:55.150Z,101626.00
2022-11-13T00:19:25.306Z,101634.00
2022-11-13T00:21:54.885Z,101636.00
2022-11-13T00:24:23.579Z,101632.00
2022-11-13T00:26:52.276Z,101626.00
2022-11-13T00:29:21.047Z,101617.00
2022-11-13T00:31:49.780Z,101632.00
2022-11-13T00:34:47.227Z,101620.00
2022-11-13T00:37:08.577Z,101631.00
2022-11-13T00:39:37.390Z,101620.00
2022-11-13T00:42:06.301Z,101615.00
2022-11-13T00:44:34.981Z,101621.00
2022-11-13T00:47:03.788Z,101612.00
2022-11-13T00:49:32.443Z,101613.00
2022-11-13T00:52:03.014Z,101606.00
2022-11-13T00:54:33.106Z,101596.00
2022-11-13T00:57:01.772Z,101601.00
2022-11-13T00:59:30.517Z,101601.00
2022-11-13T01:01:59.239Z,101599.00
2022-11-13T01:04:29.521Z,101599.00
2022-11-13T01:06:58.280Z,101595.00
2022-11-13T01:09:27.356Z,101590.00
2022-11-13T01:11:57.792Z,101594.00
2022-11-13T01:14:26.527Z,101591.00
2022-11-13T01:16:55.336Z,101584.00
2022-11-13T01:19:24.069Z,101577.00
2022-11-13T01:21:52.755Z,101581.00
2022-11-13T01:24:21.475Z,101585.00
2022-11-13T01:26:50.321Z,101583.00
2022-11-13T01:29:20.417Z,101577.00
2022-11-13T01:31:49.142Z,101584.00
2022-11-13T01:34:18.110Z,101576.00
2022-11-13T01:36:47.175Z,101586.00
2022-11-13T01:39:15.932Z,101579.00
2022-11-13T01:41:44.652Z,101580.00
2022-11-13T01:44:16.370Z,101582.00
2022-11-13T01:46:48.468Z,101581.00
2022-11-13T01:49:31.362Z,101566.00
2022-11-13T01:52:04.321Z,101569.00
2022-11-13T01:54:36.277Z,101564.00
2022-11-13T01:57:07.069Z,101560.00
2022-11-13T01:59:40.698Z,101558.00
2022-11-13T02:02:11.631Z,101552.00
2022-11-13T02:04:40.769Z,101543.00
2022-11-13T02:07:11.297Z,101535.00
2022-11-13T02:09:42.025Z,101542.00
2022-11-13T02:12:14.248Z,101546.00
2022-11-13T02:14:45.838Z,101539.00
2022-11-13T02:17:19.379Z,101541.00
2022-11-13T02:19:52.857Z,101551.00
2022-11-13T02:22:27.267Z,101547.00
2022-11-13T02:24:59.614Z,101536.00
2022-11-13T02:27:33.072Z,101551.00
2022-11-13T02:30:16.182Z,101543.00
2022-11-13T02:32:46.509Z,101545.00
2022-11-13T02:35:18.138Z,101553.00
2022-11-13T02:37:46.944Z,101549.00
2022-11-13T02:40:18.191Z,101555.00
2022-11-13T02:42:47.503Z,101556.00
2022-11-13T02:45:17.505Z,101547.00
2022-11-13T02:47:46.727Z,101548.00
2022-11-13T02:50:16.137Z,101553.00
2022-11-13T02:52:48.449Z,101540.00
2022-11-13T02:55:21.014Z,101549.00
2022-11-13T02:57:49.937Z,101546.00
2022-11-13T03:00:19.825Z,101543.00
2022-11-13T03:02:48.868Z,101536.00
2022-11-13T03:05:17.928Z,101527.00
2022-11-13T03:07:46.673Z,101524.00
2022-11-13T03:10:17.697Z,101522.00
2022-11-13T03:12:46.586Z,101530.00
2022-11-13T03:15:15.990Z,101521.00
2022-11-13T03:17:44.704Z,101531.00
2022-11-13T03:20:13.374Z,101517.00
2022-11-13T03:22:42.081Z,101519.00
2022-11-13T03:25:11.301Z,101512.00
2022-11-13T03:27:41.490Z,101520.00
2022-11-13T03:30:11.349Z,101530.00
2022-11-13T03:32:40.038Z,101537.00
2022-11-13T03:35:10.015Z,101532.00
2022-11-13T03:37:38.937Z,101530.00
2022-11-13T03:40:09.029Z,101528.00
2022-11-13T03:42:37.769Z,101521.00
2022-11-13T03:45:08.377Z,101513.00
2022-11-13T03:47:37.081Z,101514.00
2022-11-13T03:50:06.395Z,101520.00
2022-11-13T03:52:35.109Z,101521.00
2022-11-13T03:55:03.848Z,101498.00
2022-11-13T03:57:32.534Z,101496.00
2022-11-13T04:00:01.212Z,101498.00
2022-11-13T04:02:31.271Z,101488.00
2022-11-13T04:04:59.942Z,101490.00
2022-11-13T04:07:28.614Z,101479.00
2022-11-13T04:09:57.269Z,101478.00
2022-11-13T04:12:25.883Z,101472.00
2022-11-13T04:14:54.560Z,101468.00
2022-11-13T04:17:23.222Z,101462.00
2022-11-13T04:19:53.409Z,101465.00
2022-11-13T04:22:22.044Z,101466.00
2022-11-13T04:24:51.138Z,101477.00
2022-11-13T04:27:19.848Z,101462.00
2022-11-13T04:29:48.502Z,101462.00
2022-11-13T04:32:17.324Z,101463.00
2022-11-13T04:34:46.620Z,101466.00
2022-11-13T04:37:17.051Z,101472.00
2022-11-13T04:39:45.843Z,101477.00
2022-11-13T04:42:32.099Z,101469.00
2022-11-13T04:45:00.902Z,101468.00
2022-11-13T04:47:30.081Z,101471.00
2022-11-13T04:50:01.039Z,101466.00
2022-11-13T04:52:32.405Z,101462.00
2022-11-13T04:55:01.620Z,101470.00
2022-11-13T04:57:31.571Z,101466.00
2022-11-13T05:00:01.193Z,101460.00
2022-11-13T05:02:30.330Z,101461.00
2022-11-13T05:05:04.615Z,101460.00
2022-11-13T05:07:36.482Z,101461.00
2022-11-13T05:10:06.193Z,101460.00
2022-11-13T05:12:35.355Z,101459.00
2022-11-13T05:15:05.115Z,101456.00
2022-11-13T05:17:34.875Z,101452.00
2022-11-13T05:20:03.844Z,101446.00
2022-11-13T05:22:34.507Z,101446.00
2022-11-13T05:25:04.089Z,101437.00
2022-11-13T05:27:33.064Z,101433.00
2022-11-13T05:30:02.296Z,101434.00
2022-11-13T05:32:31.855Z,101431.00
2022-11-13T05:35:00.903Z,101433.00
2022-11-13T05:37:31.543Z,101431.00
2022-11-13T05:40:01.997Z,101427.00
2022-11-13T05:42:30.913Z,101441.00
2022-11-13T05:44:59.672Z,101438.00
2022-11-13T05:47:28.607Z,101442.00
2022-11-13T05:49:57.401Z,101428.00
2022-11-13T05:52:26.290Z,101420.00
2022-11-13T05:54:55.238Z,101432.00
2022-11-13T05:57:25.791Z,101414.00
2022-11-13T05:59:54.790Z,101415.00
2022-11-13T06:02:23.643Z,101428.00
2022-11-13T06:04:56.425Z,101420.00
2022-11-13T06:07:25.764Z,101424.00
2022-11-13T06:09:54.623Z,101430.00
2022-11-13T06:12:24.877Z,101429.00
2022-11-13T06:14:53.782Z,101429.00
2022-11-13T06:17:23.280Z,101424.00
2022-11-13T06:19:53.691Z,101425.00
2022-11-13T06:22:23.060Z,101432.00
2022-11-13T06:24:55.506Z,101424.00
2022-11-13T06:27:29.988Z,101419.00
2022-11-13T06:29:59.650Z,101420.00
2022-11-13T06:32:29.246Z,101420.00
2022-11-13T06:34:59.095Z,101418.00
2022-11-13T06:37:33.685Z,101418.00
2022-11-13T06:40:10.645Z,101418.00
2022-11-13T06:43:25.500Z,101421.00
2022-11-13T06:46:09.016Z,101415.00
2022-11-13T06:48:40.644Z,101426.00
2022-11-13T06:51:17.894Z,101417.00
2022-11-13T06:53:48.711Z,101421.00
2022-11-13T06:56:19.011Z,101427.00
2022-11-13T06:58:49.494Z,101428.00
2022-11-13T07:01:20.339Z,101431.00
2022-11-13T07:03:51.871Z,101412.00
2022-11-13T07:06:23.339Z,101419.00
2022-11-13T07:08:57.156Z,101417.00
2022-11-13T07:11:27.475Z,101417.00
2022-11-13T07:14:01.231Z,101418.00
2022-11-13T07:16:44.051Z,101419.00
2022-11-13T07:19:23.495Z,101429.00
2022-11-13T07:21:57.354Z,101428.00
2022-11-13T07:24:30.307Z,101415.00
2022-11-13T07:26:59.870Z,101415.00
2022-11-13T07:29:31.075Z,101411.00
2022-11-13T07:32:08.447Z,101412.00
2022-11-13T07:34:41.040Z,101407.00
2022-11-13T07:40:05.290Z,101413.00
2022-11-13T07:42:44.049Z,101404.00
2022-11-13T07:45:30.600Z,101415.00
2022-11-13T07:48:12.104Z,101411.00
2022-11-13T07:50:49.376Z,101406.00
2022-11-13T07:53:26.217Z,101417.00
2022-11-13T07:56:02.360Z,101403.00
2022-11-13T07:58:48.254Z,101405.00
2022-11-13T08:01:20.965Z,101403.00
2022-11-13T08:03:54.856Z,101398.00
2022-11-13T08:06:28.196Z,101399.00
2022-11-13T08:08:57.439Z,101399.00
2022-11-13T08:11:26.408Z,101406.00
2022-11-13T08:13:55.418Z,101407.00
2022-11-13T08:16:28.334Z,101408.00
2022-11-13T08:18:57.201Z,101406.00
2022-11-13T08:21:45.241Z,101407.00
2022-11-13T08:24:26.193Z,101406.00
2022-11-13T08:27:09.025Z,101410.00
2022-11-13T08:29:50.740Z,101395.00
2022-11-13T08:32:31.823Z,101395.00
2022-11-13T08:35:04.219Z,101395.00
2022-11-13T08:38:01.690Z,101403.00
2022-11-13T08:40:43.228Z,101388.00
2022-11-13T08:46:59.278Z,101397.00
2022-11-13T08:49:54.156Z,101381.00
2022-11-13T08:53:19.209Z,101380.00
2022-11-13T08:56:23.255Z,101391.00
2022-11-13T08:59:35.855Z,101394.00
2022-11-13T09:05:28.492Z,101386.00
2022-11-13T09:08:07.480Z,101372.00
2022-11-13T09:11:00.570Z,101369.00
2022-11-13T09:14:05.962Z,101376.00
2022-11-13T09:19:41.296Z,101368.00
2022-11-13T09:22:33.585Z,101378.00
2022-11-13T09:25:15.302Z,101375.00
2022-11-13T09:28:05.344Z,101382.00
2022-11-13T09:31:02.776Z,101396.00
2022-11-13T09:33:53.519Z,101398.00
2022-11-13T09:36:58.232Z,101387.00
2022-11-13T09:39:46.164Z,101388.00
2022-11-13T09:42:22.272Z,101385.00
2022-11-13T09:45:02.735Z,101374.00
2022-11-13T09:47:57.591Z,101381.00
2022-11-13T09:50:42.455Z,101378.00
2022-11-13T09:53:29.905Z,101377.00
2022-11-13T09:56:37.228Z,101373.00
2022-11-13T09:59:19.569Z,101378.00
2022-11-13T10:02:38.069Z,101379.00
2022-11-13T10:05:29.306Z,101373.00
2022-11-13T10:08:20.457Z,101369.00
2022-11-13T10:11:00.677Z,101356.00
2022-11-13T10:13:43.312Z,101350.00
2022-11-13T10:16:32.689Z,101347.00
2022-11-13T10:19:31.237Z,101337.00
2022-11-13T10:22:31.660Z,101344.00
2022-11-13T10:25:11.181Z,101349.00
2022-11-13T10:28:49.527Z,101346.00
2022-11-13T10:31:16.610Z,101341.00
2022-11-13T10:33:49.163Z,101334.00
2022-11-13T10:36:27.455Z,101333.00
2022-11-13T10:39:07.022Z,101340.00
2022-11-13T10:41:48.289Z,101332.00
2022-11-13T10:44:25.940Z,101327.00
2022-11-13T10:47:36.029Z,101320.00
2022-11-13T10:50:20.342Z,101318.00
2022-11-13T10:52:52.142Z,101312.00
2022-11-13T10:55:28.803Z,101310.00
2022-11-13T10:57:59.281Z,101310.00
2022-11-13T11:00:32.971Z,101309.00
2022-11-13T11:03:03.562Z,101308.00
2022-11-13T11:05:32.983Z,101299.00
2022-11-13T11:08:03.026Z,101296.00
2022-11-13T11:10:35.557Z,101291.00
2022-11-13T11:13:11.925Z,101287.00
2022-11-13T11:15:47.359Z,101272.00
2022-11-13T11:18:26.354Z,101275.00
2022-11-13T11:20:59.435Z,101273.00
2022-11-13T11:23:42.740Z,101270.00
2022-11-13T11:26:16.252Z,101257.00
2022-11-13T11:28:49.528Z,101255.00
2022-11-13T11:31:26.836Z,101248.00
2022-11-13T11:34:02.043Z,101251.00
2022-11-13T11:36:34.451Z,101256.00
2022-11-13T11:39:16.969Z,101241.00
2022-11-13T11:41:51.513Z,101236.00
2022-11-13T11:44:27.854Z,101239.00
2022-11-13T11:46:56.676Z,101241.00
2022-11-13T11:49:29.001Z,101243.00
2022-11-13T11:52:09.921Z,101231.00
2022-11-13T11:54:44.524Z,101231.00
2022-11-13T11:57:55.857Z,101232.00
2022-11-13T12:00:26.821Z,101222.00
2022-11-13T12:03:30.693Z,101226.00
2022-11-13T12:06:24.766Z,101221.00
2022-11-13T12:09:29.934Z,101219.00
2022-11-13T12:12:15.277Z,101220.00
2022-11-13T12:15:12.077Z,101210.00
2022-11-13T12:18:09.557Z,101203.00
2022-11-13T12:20:50.181Z,101197.00
2022-11-13T12:23:35.619Z,101202.00
2022-11-13T12:26:27.930Z,101193.00
2022-11-13T12:29:17.446Z,101192.00
2022-11-13T12:32:32.640Z,101192.00
2022-11-13T12:35:06.020Z,101191.00
2022-11-13T12:40:44.192Z,101184.00
2022-11-13T12:43:47.047Z,101190.00
2022-11-13T12:46:50.142Z,101194.00
2022-11-13T12:49:46.951Z,101187.00
2022-11-13T12:52:24.665Z,101184.00
2022-11-13T12:55:20.636Z,101181.00
2022-11-13T12:57:51.231Z,101171.00
2022-11-13T13:00:29.570Z,101166.00
2022-11-13T13:03:18.091Z,101167.00
2022-11-13T13:06:12.883Z,101171.00
2022-11-13T13:09:14.153Z,101169.00
2022-11-13T13:11:52.249Z,101166.00
2022-11-13T13:14:41.905Z,101162.00
2022-11-13T13:17:22.948Z,101164.00
2022-11-13T13:20:00.617Z,101160.00
2022-11-13T13:22:33.890Z,101161.00
2022-11-13T13:25:11.908Z,101160.00
2022-11-13T13:27:43.544Z,101154.00
2022-11-13T13:30:22.242Z,101150.00
2022-11-13T13:33:02.223Z,101145.00
2022-11-13T13:35:38.774Z,101139.00
2022-11-13T13:38:17.095Z,101139.00
2022-11-13T13:41:00.677Z,101140.00
2022-11-13T13:43:41.409Z,101134.00
2022-11-13T13:46:16.674Z,101136.00
2022-11-13T13:48:48.108Z,101139.00
2022-11-13T13:51:24.939Z,101141.00
2022-11-13T13:53:54.730Z,101134.00
2022-11-13T13:56:24.684Z,101131.00
2022-11-13T13:58:55.269Z,101132.00
2022-11-13T14:01:33.994Z,101134.00
2022-11-13T14:04:08.472Z,101129.00
2022-11-13T14:09:23.934Z,101132.00
2022-11-13T14:12:00.698Z,101131.00
2022-11-13T14:14:30.908Z,101123.00
2022-11-13T14:17:01.769Z,101126.00
2022-11-13T14:19:30.540Z,101117.00
2022-11-13T14:22:02.921Z,101109.00
2022-11-13T14:24:35.912Z,101118.00
2022-11-13T14:27:07.847Z,101117.00
2022-11-13T14:29:38.827Z,101111.00
2022-11-13T14:32:13.953Z,101111.00
2022-11-13T14:34:45.766Z,101109.00
2022-11-13T14:37:23.584Z,101109.00
2022-11-13T14:39:54.233Z,101101.00
2022-11-13T14:42:27.592Z,101100.00
2022-11-13T14:45:06.967Z,101100.00
2022-11-13T14:47:37.732Z,101095.00
2022-11-13T14:53:26.782Z,101092.00
2022-11-13T14:55:58.633Z,101090.00
2022-11-13T14:58:32.282Z,101091.00
2022-11-13T15:01:12.767Z,101081.00
2022-11-13T15:03:41.614Z,101085.00
2022-11-13T15:06:14.052Z,101085.00
2022-11-13T15:08:43.115Z,101071.00
2022-11-13T15:11:15.796Z,101070.00
2022-11-13T15:13:45.056Z,101069.00
2022-11-13T15:16:17.990Z,101071.00
2022-11-13T15:18:49.960Z,101063.00
2022-11-13T15:21:19.110Z,101069.00
2022-11-13T15:23:47.859Z,101067.00
2022-11-13T15:26:18.134Z,101065.00
2022-11-13T15:28:46.980Z,101058.00
2022-11-13T15:31:21.300Z,101061.00
2022-11-13T15:33:50.181Z,101067.00
2022-11-13T15:36:18.927Z,101068.00
2022-11-13T15:38:47.828Z,101059.00
2022-11-13T15:41:20.891Z,101061.00
2022-11-13T15:43:51.131Z,101072.00
2022-11-13T15:46:21.056Z,101065.00
2022-11-13T15:48:50.613Z,101068.00
2022-11-13T15:51:22.387Z,101066.00
2022-11-13T15:53:55.053Z,101063.00
2022-11-13T15:56:26.068Z,101067.00
2022-11-13T15:58:54.794Z,101062.00
2022-11-13T16:01:32.219Z,101068.00
2022-11-13T16:04:02.547Z,101071.00
2022-11-13T16:06:31.542Z,101061.00
2022-11-13T16:09:00.326Z,101058.00
2022-11-13T16:11:33.028Z,101056.00
2022-11-13T16:14:02.329Z,101056.00
2022-11-13T16:16:34.947Z,101052.00
2022-11-13T16:19:04.267Z,101054.00
2022-11-13T16:21:35.389Z,101055.00
2022-11-13T16:24:04.283Z,101060.00
2022-11-13T16:26:34.765Z,101042.00
2022-11-13T16:29:18.976Z,101050.00
2022-11-13T16:31:47.960Z,101043.00
2022-11-13T16:34:16.659Z,101052.00
2022-11-13T16:36:45.715Z,101049.00
2022-11-13T16:39:17.560Z,101063.00
2022-11-13T16:41:47.643Z,101056.00
2022-11-13T16:44:16.403Z,101066.00
2022-11-13T16:46:49.637Z,101062.00
2022-11-13T16:49:19.484Z,101063.00
2022-11-13T16:51:52.908Z,101055.00
2022-11-13T16:54:21.564Z,101054.00
2022-11-13T16:56:51.737Z,101049.00
2022-11-13T16:59:20.459Z,101041.00
2022-11-13T17:01:49.110Z,101038.00
2022-11-13T17:04:17.825Z,101042.00
2022-11-13T17:06:47.160Z,101042.00
2022-11-13T17:09:16.244Z,101045.00
2022-11-13T17:11:45.202Z,101039.00
2022-11-13T17:14:15.690Z,101036.00
2022-11-13T17:16:44.311Z,101041.00
2022-11-13T17:19:14.971Z,101028.00
2022-11-13T17:21:44.520Z,101034.00
2022-11-13T17:24:13.388Z,101028.00
2022-11-13T17:26:42.017Z,101022.00
2022-11-13T17:29:10.654Z,101022.00
2022-11-13T17:31:40.689Z,101030.00
2022-11-13T17:34:09.405Z,101019.00
2022-11-13T17:36:38.141Z,101022.00
2022-11-13T17:39:06.733Z,101025.00
2022-11-13T17:41:37.183Z,101019.00
2022-11-13T17:44:06.198Z,101019.00
2022-11-13T17:46:34.874Z,101014.00
2022-11-13T17:49:05.061Z,101007.00
2022-11-13T17:51:33.657Z,101005.00
2022-11-13T17:54:02.399Z,101010.00
2022-11-13T17:56:31.148Z,101012.00
2022-11-13T17:58:59.891Z,101008.00
2022-11-13T18:01:31.457Z,101012.00
2022-11-13T18:04:00.483Z,101005.00
2022-11-13T18:06:30.673Z,101003.00
2022-11-13T18:08:59.343Z,101007.00
2022-11-13T18:11:31.330Z,101011.00
2022-11-13T18:14:00.022Z,101019.00
2022-11-13T18:16:31.506Z,101011.00
2022-11-13T18:19:01.292Z,101000.00
2022-11-13T18:21:33.575Z,101005.00
2022-11-13T18:24:04.879Z,101003.00
2022-11-13T18:26:34.626Z,101002.00
2022-11-13T18:29:03.677Z,100998.00
2022-11-13T18:31:32.568Z,100996.00
2022-11-13T18:34:02.514Z,100992.00
2022-11-13T18:36:34.789Z,100986.00
2022-11-13T18:39:04.053Z,100989.00
2022-11-13T18:41:33.739Z,100987.00
2022-11-13T18:44:02.813Z,100986.00
2022-11-13T18:46:31.858Z,100992.00
2022-11-13T18:49:00.633Z,100988.00
2022-11-13T18:51:35.476Z,100985.00
2022-11-13T18:54:09.675Z,100978.00
2022-11-13T18:56:39.998Z,100982.00
2022-11-13T18:59:09.015Z,100977.00
2022-11-13T19:01:39.862Z,100975.00
2022-11-13T19:04:25.672Z,100969.00
2022-11-13T19:06:56.173Z,100965.00
2022-11-13T19:09:24.906Z,100962.00
2022-11-13T19:11:55.053Z,100965.00
2022-11-13T19:14:23.788Z,100956.00
2022-11-13T19:16:52.516Z,100968.00
2022-11-13T19:19:23.382Z,100966.00
2022-11-13T19:21:56.426Z,100971.00
2022-11-13T19:24:26.456Z,100963.00
2022-11-13T19:26:55.144Z,100963.00
2022-11-13T19:29:23.813Z,100956.00
2022-11-13T19:31:53.701Z,100956.00
2022-11-13T19:34:22.417Z,100953.00
2022-11-13T19:36:51.519Z,100949.00
2022-11-13T19:39:20.603Z,100954.00
2022-11-13T19:41:50.861Z,100957.00
2022-11-13T19:44:19.508Z,100960.00
2022-11-13T19:46:49.804Z,100955.00
2022-11-13T19:49:18.608Z,100955.00
2022-11-13T19:51:47.340Z,100962.00
2022-11-13T19:54:17.119Z,100951.00
2022-11-13T19:56:45.770Z,100955.00
2022-11-13T19:59:16.177Z,100941.00
2022-11-13T20:01:44.852Z,100953.00
2022-11-13T20:04:14.615Z,100955.00
2022-11-13T20:06:43.399Z,100951.00
2022-11-13T20:09:12.182Z,100946.00
2022-11-13T20:11:41.674Z,100943.00
2022-11-13T20:14:12.875Z,100952.00
2022-11-13T20:16:43.043Z,100944.00
2022-11-13T20:19:11.814Z,100942.00
2022-11-13T20:21:40.906Z,100946.00
2022-11-13T20:24:11.824Z,100944.00
2022-11-13T20:26:40.732Z,100939.00
2022-11-13T20:29:09.532Z,100943.00
2022-11-13T20:31:38.389Z,100940.00
2022-11-13T20:34:08.682Z,100943.00
2022-11-13T20:36:37.454Z,100931.00
2022-11-13T20:39:09.361Z,100935.00
2022-11-13T20:41:38.504Z,100934.00
2022-11-13T20:44:07.632Z,100936.00
2022-11-13T20:46:36.526Z,100930.00
2022-11-13T20:49:05.781Z,100926.00
2022-11-13T20:51:36.025Z,100928.00
2022-11-13T20:54:05.007Z,100922.00
2022-11-13T20:56:33.739Z,100929.00
2022-11-13T20:59:04.087Z,100918.00
2022-11-13T21:01:34.398Z,100925.00
2022-11-13T21:04:03.337Z,100919.00
2022-11-13T21:06:32.081Z,100917.00
2022-11-13T21:09:03.592Z,100911.00
2022-11-13T21:11:33.015Z,100904.00
2022-11-13T21:14:01.758Z,100904.00
2022-11-13T21:16:30.610Z,100904.00
2022-11-13T21:19:00.791Z,100891.00
2022-11-13T21:21:29.561Z,100897.00
2022-11-13T21:23:59.481Z,100894.00
2022-11-13T21:26:30.023Z,100901.00
2022-11-13T21:29:00.254Z,100900.00
2022-11-13T21:31:29.235Z,100893.00
2022-11-13T21:33:59.374Z,100899.00
2022-11-13T21:36:29.530Z,100901.00
2022-11-13T21:38:58.569Z,100896.00
2022-11-13T21:41:29.012Z,100893.00
2022-11-13T21:43:59.636Z,100887.00
2022-11-13T21:46:30.888Z,100892.00
2022-11-13T21:49:02.400Z,100883.00
2022-11-13T21:51:32.054Z,100888.00
2022-11-13T21:54:01.287Z,100895.00
2022-11-13T21:56:33.329Z,100884.00
2022-11-13T21:59:02.308Z,100884.00
2022-11-13T22:01:37.841Z,100879.00
2022-11-13T22:04:07.615Z,100867.00
2022-11-13T22:06:37.228Z,100879.00
2022-11-13T22:09:08.385Z,100870.00
2022-11-13T22:11:38.928Z,100879.00
2022-11-13T22:14:08.001Z,100885.00
2022-11-13T22:16:38.449Z,100881.00
2022-11-13T22:19:10.854Z,100879.00
2022-11-13T22:21:39.882Z,100883.00
2022-11-13T22:24:09.591Z,100877.00
2022-11-13T22:26:41.290Z,100881.00
2022-11-13T22:29:10.121Z,100878.00
2022-11-13T22:31:39.327Z,100871.00
2022-11-13T22:34:08.205Z,100870.00
2022-11-13T22:36:39.086Z,100862.00
2022-11-13T22:39:14.702Z,100864.00
2022-11-13T22:41:47.283Z,100861.00
2022-11-13T22:44:28.572Z,100861.00
2022-11-13T22:47:09.057Z,100855.00
2022-11-13T22:49:38.810Z,100853.00
2022-11-13T22:52:09.230Z,100857.00
2022-11-13T22:54:41.071Z,100852.00
2022-11-13T22:57:13.969Z,100839.00
2022-11-13T22:59:44.485Z,100833.00
2022-11-13T23:02:14.763Z,100834.00
2022-11-13T23:04:44.810Z,100820.00
2022-11-13T23:07:18.947Z,100822.00
2022-11-13T23:09:54.195Z,100821.00
2022-11-13T23:12:30.930Z,100813.00
2022-11-13T23:15:05.346Z,100821.00
2022-11-13T23:17:35.889Z,100812.00
2022-11-13T23:20:21.348Z,100803.00
2022-11-13T23:22:52.380Z,100804.00
2022-11-13T23:28:12.511Z,100801.00
2022-11-13T23:30:43.860Z,100792.00
2022-11-13T23:33:14.502Z,100800.00
2022-11-13T23:35:59.540Z,100783.00
2022-11-13T23:38:29.698Z,100787.00
2022-11-13T23:41:02.750Z,100783.00
2022-11-13T23:46:30.391Z,100779.00
2022-11-13T23:49:01.818Z,100776.00
2022-11-13T23:51:33.182Z,100773.00
2022-11-13T23:54:12.553Z,100769.00
2022-11-13T23:56:42.814Z,100775.00
2022-11-13T23:59:16.881Z,100771.00
